Time;durP1;ratioP1;P1;durP2;ratioP2;P2;SDS_P1;SDS_P2;PMS_P1;PMS_P2;Temp;Humidity;BMP_temperature;BMP_pressure;BME280_temperature;BME280_humidity;BME280_pressure;Samples;Min_cycle;Max_cycle;Signal;HPM_P1;HPM_P2
2022/05/18 00:02:23;;;;;;;0.32;0.25;;;23.30;61.00;;;;;;4975919;28;20057;-15
2022/05/18 00:04:48;;;;;;;0.38;0.38;;;23.20;61.00;;;;;;4977476;28;20488;-15
2022/05/18 00:07:14;;;;;;;0.30;0.30;;;23.20;61.00;;;;;;4975844;28;20137;-15
2022/05/18 00:09:40;;;;;;;0.52;0.30;;;23.20;61.00;;;;;;4977426;28;20035;-17
2022/05/18 00:12:06;;;;;;;0.30;0.30;;;23.20;61.00;;;;;;4976819;28;20118;-16
2022/05/18 00:14:31;;;;;;;0.35;0.35;;;23.30;60.90;;;;;;4976738;28;20092;-16
2022/05/18 00:17:00;;;;;;;0.75;0.60;;;23.20;60.90;;;;;;4976388;28;20047;-18
2022/05/18 00:19:25;;;;;;;0.50;0.35;;;23.20;61.00;;;;;;4957204;28;20043;-15
2022/05/18 00:21:51;;;;;;;0.50;0.50;;;23.20;60.90;;;;;;4957495;28;20197;-16
2022/05/18 00:24:17;;;;;;;0.28;0.28;;;23.20;61.00;;;;;;4957238;28;20039;-15
2022/05/18 00:26:42;;;;;;;0.32;0.32;;;23.20;61.00;;;;;;4961656;28;20054;-15
2022/05/18 00:29:08;;;;;;;0.45;0.30;;;23.20;61.10;;;;;;4976177;28;20042;-14
2022/05/18 00:31:33;;;;;;;0.30;0.30;;;23.20;61.10;;;;;;4977009;28;20066;-15
2022/05/18 00:33:59;;;;;;;0.30;0.30;;;23.20;61.10;;;;;;4958380;28;20404;-15
2022/05/18 00:36:24;;;;;;;0.50;0.50;;;23.20;61.00;;;;;;4957101;28;20122;-15
2022/05/18 00:38:50;;;;;;;0.40;0.40;;;23.20;61.00;;;;;;4961126;28;20043;-16
2022/05/18 00:41:19;;;;;;;0.55;0.30;;;23.10;61.00;;;;;;4955825;28;20125;-15
2022/05/18 00:43:44;;;;;;;0.20;0.20;;;23.20;61.00;;;;;;4972263;28;20043;-15
2022/05/18 00:46:12;;;;;;;0.30;0.28;;;23.20;61.00;;;;;;4975508;28;20054;-15
2022/05/18 00:48:38;;;;;;;0.30;0.30;;;23.20;61.00;;;;;;4976455;28;20130;-15
2022/05/18 00:51:05;;;;;;;0.45;0.45;;;23.20;61.00;;;;;;4974126;28;20077;-17
2022/05/18 00:53:34;;;;;;;0.20;0.20;;;23.10;61.00;;;;;;4959242;28;20447;-15
2022/05/18 00:56:01;;;;;;;0.20;0.20;;;23.10;61.00;;;;;;4959768;28;20049;-15
2022/05/18 00:58:34;;;;;;;0.90;0.40;;;23.20;61.00;;;;;;4958881;28;20049;-15
2022/05/18 01:00:59;;;;;;;0.70;0.38;;;23.20;61.00;;;;;;4960562;28;20051;-17
2022/05/18 01:03:36;;;;;;;0.55;0.50;;;23.20;60.90;;;;;;4974677;28;20043;-15
2022/05/18 01:06:08;;;;;;;0.40;0.20;;;23.10;61.00;;;;;;4974853;28;20130;-15
2022/05/18 01:09:06;;;;;;;0.20;0.20;;;23.10;61.00;;;;;;4971421;28;20043;-15
2022/05/18 01:11:36;;;;;;;0.25;0.25;;;23.10;61.10;;;;;;4948677;28;20051;-15
2022/05/18 01:14:02;;;;;;;0.38;0.30;;;23.10;60.90;;;;;;4961896;28;20050;-16
2022/05/18 01:16:27;;;;;;;0.30;0.30;;;23.10;61.00;;;;;;4974049;28;20105;-15
2022/05/18 01:18:53;;;;;;;1.48;0.30;;;23.10;61.10;;;;;;4975338;28;20039;-15
2022/05/18 01:21:19;;;;;;;0.50;0.50;;;23.10;61.00;;;;;;4950341;28;20047;-15
2022/05/18 01:24:36;;;;;;;0.20;0.20;;;23.10;60.90;;;;;;4955317;28;20048;-15
2022/05/18 01:27:02;;;;;;;0.30;0.30;;;23.10;61.00;;;;;;4955094;28;20135;-17
2022/05/18 01:29:28;;;;;;;0.10;0.10;;;23.10;61.00;;;;;;4956709;28;20103;-17
2022/05/18 01:31:59;;;;;;;0.40;0.20;;;23.10;61.00;;;;;;4955789;28;20098;-15
2022/05/18 01:34:27;;;;;;;0.20;0.20;;;23.10;60.90;;;;;;4961694;28;20035;-15
2022/05/18 01:36:53;;;;;;;0.50;0.50;;;23.10;61.40;;;;;;4975987;28;20110;-15
2022/05/18 01:39:24;;;;;;;0.60;0.40;;;23.10;60.90;;;;;;4978335;28;20073;-14
2022/05/18 01:41:56;;;;;;;0.32;0.32;;;23.10;60.90;;;;;;4980144;28;20042;-16
2022/05/18 01:44:22;;;;;;;0.22;0.22;;;23.10;60.90;;;;;;4963292;28;20534;-17
2022/05/18 01:46:48;;;;;;;0.30;0.30;;;23.10;60.90;;;;;;4977336;28;20405;-15
2022/05/18 01:49:14;;;;;;;0.30;0.30;;;23.10;60.80;;;;;;4959933;28;20516;-15
2022/05/18 01:51:45;;;;;;;0.50;0.38;;;23.10;60.90;;;;;;4960229;28;20151;-15
2022/05/18 01:54:11;;;;;;;0.32;0.32;;;23.10;60.90;;;;;;4978420;28;20063;-15
2022/05/18 01:56:37;;;;;;;0.32;0.30;;;23.10;60.80;;;;;;4978650;28;20070;-17
2022/05/18 01:59:03;;;;;;;0.20;0.20;;;23.10;60.90;;;;;;4978433;28;20078;-15
2022/05/18 02:01:28;;;;;;;0.47;0.30;;;23.10;61.10;;;;;;4978654;28;20053;-14
2022/05/18 02:03:54;;;;;;;0.30;0.25;;;23.00;61.10;;;;;;4979520;28;20094;-15
2022/05/18 02:06:20;;;;;;;0.32;0.20;;;23.00;60.90;;;;;;4979065;28;20110;-15
2022/05/18 02:08:45;;;;;;;0.40;0.40;;;23.10;60.80;;;;;;4978335;28;20042;-15
2022/05/18 02:11:12;;;;;;;2.85;0.40;;;23.00;60.90;;;;;;4970231;28;20035;-16
2022/05/18 02:13:38;;;;;;;0.30;0.30;;;23.00;60.90;;;;;;4960271;28;20592;-15
2022/05/18 02:16:04;;;;;;;0.35;0.30;;;23.00;60.80;;;;;;4960248;28;20501;-15
2022/05/18 02:18:29;;;;;;;0.20;0.20;;;23.10;60.90;;;;;;4964616;28;20048;-15
2022/05/18 02:20:55;;;;;;;0.40;0.30;;;23.00;60.90;;;;;;4960041;28;20082;-15
2022/05/18 02:23:21;;;;;;;0.45;0.20;;;23.00;61.00;;;;;;4957583;28;20050;-15
2022/05/18 02:25:46;;;;;;;2.67;0.40;;;23.00;60.90;;;;;;4960291;28;20106;-15
2022/05/18 02:28:12;;;;;;;0.30;0.20;;;23.00;60.90;;;;;;4959330;28;20051;-15
2022/05/18 02:30:38;;;;;;;0.20;0.20;;;23.00;61.00;;;;;;4958605;28;20509;-15
2022/05/18 02:33:03;;;;;;;0.30;0.25;;;23.00;61.00;;;;;;4969640;28;20134;-15
2022/05/18 02:35:29;;;;;;;0.20;0.20;;;23.00;60.90;;;;;;4978457;28;20386;-15
2022/05/18 02:37:55;;;;;;;0.40;0.20;;;23.00;60.90;;;;;;4978135;28;20047;-15
2022/05/18 02:40:20;;;;;;;0.40;0.20;;;23.00;60.90;;;;;;4978405;28;20089;-15
2022/05/18 02:42:46;;;;;;;0.30;0.30;;;23.00;60.90;;;;;;4978408;28;20137;-15
2022/05/18 02:45:11;;;;;;;0.20;0.20;;;23.00;60.80;;;;;;4978422;28;20043;-15
2022/05/18 02:47:38;;;;;;;0.20;0.20;;;23.00;60.80;;;;;;4978616;28;20046;-15
2022/05/18 02:50:04;;;;;;;0.30;0.30;;;23.00;60.90;;;;;;4976958;28;20050;-15
2022/05/18 02:52:31;;;;;;;0.20;0.20;;;23.00;60.80;;;;;;4976653;28;21579;-15
2022/05/18 02:57:41;;;;;;;0.40;0.30;;;23.00;60.80;;;;;;4978253;28;20050;-15
2022/05/18 03:00:07;;;;;;;0.50;0.50;;;23.00;60.70;;;;;;4978325;28;20047;-15
2022/05/18 03:02:33;;;;;;;0.20;0.20;;;23.00;60.70;;;;;;4977849;28;20042;-15
2022/05/18 03:04:59;;;;;;;0.28;0.13;;;23.00;60.70;;;;;;4977982;28;20074;-15
2022/05/18 03:07:25;;;;;;;0.60;0.30;;;23.00;60.70;;;;;;4977662;28;20451;-14
2022/05/18 03:09:50;;;;;;;0.30;0.30;;;23.00;60.60;;;;;;4963415;28;20063;-15
2022/05/18 03:12:16;;;;;;;0.40;0.40;;;22.90;60.60;;;;;;4958627;28;20075;-15
2022/05/18 03:14:41;;;;;;;1.92;0.20;;;23.00;60.80;;;;;;4961082;28;20047;-15
2022/05/18 03:17:07;;;;;;;0.20;0.20;;;22.90;60.70;;;;;;4977623;28;20145;-15
2022/05/18 03:19:32;;;;;;;0.30;0.30;;;23.00;60.70;;;;;;4977718;28;20400;-15
2022/05/18 03:24:42;;;;;;;0.43;0.30;;;22.90;60.60;;;;;;4957394;28;20131;-17
2022/05/18 03:27:09;;;;;;;0.17;0.10;;;22.90;60.60;;;;;;4958829;28;20488;-16
2022/05/18 03:29:35;;;;;;;0.13;0.13;;;23.00;60.50;;;;;;4976270;28;20066;-15
2022/05/18 03:32:01;;;;;;;0.28;0.25;;;22.90;60.50;;;;;;4977303;28;20042;-15
2022/05/18 03:34:26;;;;;;;0.40;0.30;;;22.90;60.60;;;;;;4977489;28;20649;-15
2022/05/18 03:36:52;;;;;;;0.25;0.20;;;22.90;60.50;;;;;;4977618;28;20070;-15
2022/05/18 03:39:18;;;;;;;0.30;0.30;;;22.90;60.40;;;;;;4977292;28;20097;-15
2022/05/18 03:41:44;;;;;;;0.20;0.20;;;22.90;60.50;;;;;;4977316;28;20046;-15
2022/05/18 03:44:09;;;;;;;0.30;0.20;;;22.90;60.50;;;;;;4975917;28;20051;-15
2022/05/18 03:46:35;;;;;;;0.30;0.20;;;22.90;60.50;;;;;;4975922;28;20133;-15
2022/05/18 03:49:01;;;;;;;0.45;0.30;;;22.90;60.50;;;;;;4968640;28;20043;-15
2022/05/18 03:51:26;;;;;;;0.63;0.30;;;22.90;60.60;;;;;;4976394;28;20043;-15
2022/05/18 03:53:52;;;;;;;0.30;0.30;;;22.90;60.40;;;;;;4977418;28;20400;-16
2022/05/18 03:56:18;;;;;;;0.10;0.10;;;22.90;60.30;;;;;;4977149;28;20126;-15
2022/05/18 03:58:44;;;;;;;0.15;0.10;;;22.90;60.30;;;;;;4977688;28;20073;-15
2022/05/18 04:01:10;;;;;;;0.30;0.30;;;22.90;60.30;;;;;;4975880;28;20042;-15
2022/05/18 04:03:45;;;;;;;0.65;0.10;;;22.90;60.40;;;;;;4974223;28;20046;-16
2022/05/18 04:06:12;;;;;;;0.30;0.30;;;22.90;60.40;;;;;;4966515;28;20073;-14
2022/05/18 04:08:37;;;;;;;0.10;0.10;;;22.90;60.30;;;;;;4976595;28;20055;-15
2022/05/18 04:11:04;;;;;;;0.10;0.10;;;22.90;60.30;;;;;;4977440;28;20035;-15
2022/05/18 04:13:30;;;;;;;0.20;0.17;;;22.90;60.30;;;;;;4959551;28;20075;-16
2022/05/18 04:15:56;;;;;;;0.20;0.20;;;22.80;60.20;;;;;;4958829;28;20039;-17
2022/05/18 04:18:22;;;;;;;0.28;0.17;;;22.90;60.30;;;;;;4972220;28;20093;-16
2022/05/18 04:20:48;;;;;;;0.20;0.20;;;22.90;60.20;;;;;;4975238;28;20109;-17
2022/05/18 04:23:15;;;;;;;0.10;0.10;;;22.90;60.30;;;;;;4973305;28;20105;-17
2022/05/18 04:25:41;;;;;;;0.20;0.20;;;22.90;60.20;;;;;;4975149;28;20046;-15
2022/05/18 04:28:07;;;;;;;0.10;0.10;;;22.80;60.10;;;;;;4973779;28;20077;-15
2022/05/18 04:30:33;;;;;;;0.30;0.30;;;22.80;60.20;;;;;;4975135;28;20138;-17
2022/05/18 04:32:58;;;;;;;0.60;0.20;;;22.80;60.10;;;;;;4972486;28;20056;-16
2022/05/18 04:35:25;;;;;;;0.20;0.20;;;22.80;60.10;;;;;;4981693;28;20045;-16
2022/05/18 04:37:51;;;;;;;0.30;0.30;;;22.80;60.10;;;;;;4970436;28;20649;-17
2022/05/18 04:40:16;;;;;;;0.50;0.30;;;22.90;60.00;;;;;;4974907;28;20392;-18
2022/05/18 04:42:42;;;;;;;0.20;0.20;;;22.80;60.10;;;;;;4975532;28;20142;-16
2022/05/18 04:45:10;;;;;;;0.20;0.20;;;22.80;60.10;;;;;;4970537;28;20043;-16
2022/05/18 04:47:35;;;;;;;0.50;0.20;;;22.80;60.10;;;;;;4958579;28;21170;-17
2022/05/18 04:50:01;;;;;;;0.10;0.10;;;22.80;60.10;;;;;;4976080;28;20417;-16
2022/05/18 04:52:28;;;;;;;0.20;0.20;;;22.80;60.10;;;;;;4972743;28;20046;-16
2022/05/18 04:54:54;;;;;;;0.52;0.30;;;22.80;60.10;;;;;;4975311;28;20035;-17
2022/05/18 04:57:20;;;;;;;0.10;0.10;;;22.80;60.20;;;;;;4969556;28;20039;-16
2022/05/18 04:59:46;;;;;;;0.30;0.10;;;22.80;60.30;;;;;;4971754;28;20046;-15
2022/05/18 05:02:11;;;;;;;0.25;0.20;;;22.80;61.10;;;;;;4973869;28;20046;-15
2022/05/18 05:04:37;;;;;;;0.10;0.10;;;22.80;60.40;;;;;;4973203;28;20050;-15
2022/05/18 05:07:03;;;;;;;0.90;0.50;;;22.80;60.40;;;;;;4975000;28;20053;-16
2022/05/18 05:09:29;;;;;;;1.25;0.65;;;22.50;59.70;;;;;;4626097;28;10000147;-15
2022/05/18 05:11:54;;;;;;;1.35;0.63;;;22.10;59.40;;;;;;4981699;28;20078;-16
2022/05/18 05:14:20;;;;;;;1.80;0.80;;;21.80;59.90;;;;;;4973959;28;20053;-16
2022/05/18 05:16:46;;;;;;;1.33;0.50;;;21.70;61.00;;;;;;4980481;28;20054;-16
2022/05/18 05:19:12;;;;;;;0.80;0.50;;;21.60;60.40;;;;;;4974108;28;20049;-15
2022/05/18 05:21:42;;;;;;;1.10;0.57;;;21.50;60.50;;;;;;4974090;28;20061;-15
2022/05/18 05:24:09;;;;;;;2.45;1.13;;;21.40;60.80;;;;;;4976232;28;20138;-15
2022/05/18 05:26:35;;;;;;;0.85;0.68;;;21.40;61.30;;;;;;4973622;28;20424;-16
2022/05/18 05:29:01;;;;;;;1.30;0.80;;;21.20;61.70;;;;;;4971752;28;20042;-15
2022/05/18 05:31:26;;;;;;;0.98;0.65;;;21.20;61.70;;;;;;4972864;28;20062;-15
2022/05/18 05:33:52;;;;;;;0.90;0.50;;;21.10;62.20;;;;;;4969308;28;20042;-15
2022/05/18 05:36:18;;;;;;;2.50;0.75;;;21.10;62.70;;;;;;4973952;28;20109;-15
2022/05/18 05:38:43;;;;;;;1.33;0.90;;;21.10;62.80;;;;;;4976498;28;20043;-15
2022/05/18 05:41:09;;;;;;;1.85;0.93;;;20.90;63.20;;;;;;4976372;28;20496;-15
2022/05/18 05:43:35;;;;;;;2.53;0.80;;;20.90;63.30;;;;;;4976184;28;20419;-15
2022/05/18 05:46:05;;;;;;;1.63;0.82;;;20.90;63.30;;;;;;4982701;28;20046;-15
2022/05/18 05:48:32;;;;;;;1.00;0.75;;;20.80;63.60;;;;;;4973744;28;20264;-15
2022/05/18 05:50:58;;;;;;;1.20;0.80;;;20.80;64.00;;;;;;4977205;28;20045;-15
2022/05/18 05:53:24;;;;;;;1.30;0.77;;;20.80;64.10;;;;;;4966043;28;20047;-14
2022/05/18 05:55:50;;;;;;;0.90;0.73;;;20.80;64.10;;;;;;4958958;28;20558;-15
2022/05/18 05:58:16;;;;;;;2.38;0.50;;;20.90;63.90;;;;;;4966526;28;20046;-15
2022/05/18 06:00:42;;;;;;;1.17;0.70;;;21.00;63.50;;;;;;4978519;28;20050;-15
2022/05/18 06:03:08;;;;;;;0.80;0.80;;;21.00;63.60;;;;;;4978719;28;20051;-15
2022/05/18 06:05:33;;;;;;;13.30;0.95;;;20.90;63.80;;;;;;4978074;28;20487;-15
2022/05/18 06:07:59;;;;;;;1.48;0.93;;;21.00;64.00;;;;;;4964296;28;20055;-18
2022/05/18 06:10:24;;;;;;;2.67;0.90;;;21.00;63.60;;;;;;4960221;28;21082;-17
2022/05/18 06:12:50;;;;;;;0.80;0.50;;;21.30;63.50;;;;;;4966298;28;20047;-17
2022/05/18 06:15:16;;;;;;;1.33;0.47;;;21.40;62.40;;;;;;4964511;28;20061;-18
2022/05/18 06:17:41;;;;;;;1.08;0.80;;;21.50;62.00;;;;;;4962379;28;20051;-17
2022/05/18 06:20:08;;;;;;;0.73;0.70;;;21.60;61.80;;;;;;4963195;28;20055;-17
2022/05/18 06:22:33;;;;;;;0.80;0.40;;;21.60;61.70;;;;;;4963832;28;20165;-17
2022/05/18 06:24:59;;;;;;;1.20;0.40;;;21.70;61.40;;;;;;4964225;28;20172;-17
2022/05/18 06:27:24;;;;;;;0.50;0.40;;;21.70;61.30;;;;;;4961370;28;20050;-17
2022/05/18 06:29:50;;;;;;;3.15;0.57;;;21.80;61.30;;;;;;4964039;28;20055;-17
2022/05/18 06:32:16;;;;;;;0.95;0.47;;;21.80;61.00;;;;;;4964260;28;20169;-18
2022/05/18 06:34:42;;;;;;;0.47;0.40;;;21.90;60.80;;;;;;4964522;28;20062;-18
2022/05/18 06:37:07;;;;;;;0.70;0.50;;;22.00;60.60;;;;;;4963787;28;20051;-17
2022/05/18 06:39:33;;;;;;;0.43;0.40;;;22.00;60.60;;;;;;4961942;28;20106;-17
2022/05/18 06:41:59;;;;;;;1.45;0.40;;;22.00;60.50;;;;;;4964847;28;20112;-17
2022/05/18 06:44:24;;;;;;;0.22;0.22;;;22.10;60.50;;;;;;4963338;28;20664;-17
2022/05/18 06:46:50;;;;;;;0.60;0.40;;;22.10;60.40;;;;;;4963877;28;20086;-16
2022/05/18 06:49:16;;;;;;;0.95;0.50;;;22.10;60.30;;;;;;4961863;28;20070;-17
2022/05/18 06:51:42;;;;;;;0.90;0.60;;;22.20;60.30;;;;;;4963026;28;20137;-16
2022/05/18 06:54:08;;;;;;;0.55;0.40;;;22.20;60.20;;;;;;4964827;28;20106;-16
2022/05/18 06:56:36;;;;;;;0.90;0.50;;;22.30;60.20;;;;;;4962080;28;20047;-16
2022/05/18 06:59:02;;;;;;;0.80;0.50;;;22.30;60.20;;;;;;4962111;28;20054;-17
2022/05/18 07:01:28;;;;;;;0.80;0.50;;;22.30;60.10;;;;;;4967381;28;20042;-16
2022/05/18 07:03:54;;;;;;;0.93;0.63;;;22.40;60.10;;;;;;4975161;28;20046;-16
2022/05/18 07:06:22;;;;;;;1.38;0.50;;;22.30;60.10;;;;;;4969207;28;20393;-16
2022/05/18 07:08:48;;;;;;;0.52;0.40;;;22.30;60.10;;;;;;4976788;28;20069;-16
2022/05/18 07:11:13;;;;;;;0.75;0.30;;;22.30;60.00;;;;;;4973079;28;20058;-17
2022/05/18 07:13:39;;;;;;;0.45;0.40;;;22.30;60.10;;;;;;4958336;28;20046;-16
2022/05/18 07:16:05;;;;;;;0.98;0.40;;;22.30;60.00;;;;;;4973885;28;20808;-16
2022/05/18 07:18:32;;;;;;;0.55;0.55;;;22.30;60.00;;;;;;4975765;28;20042;-16
2022/05/18 07:20:58;;;;;;;2.17;0.57;;;22.40;60.00;;;;;;4976126;28;20047;-16
2022/05/18 07:23:25;;;;;;;0.50;0.40;;;22.40;59.90;;;;;;4975685;28;20050;-17
2022/05/18 07:25:51;;;;;;;0.98;0.65;;;22.40;59.90;;;;;;4975916;28;20038;-16
2022/05/18 07:28:17;;;;;;;0.43;0.30;;;22.40;59.90;;;;;;4979714;28;20062;-16
2022/05/18 07:30:42;;;;;;;0.77;0.57;;;22.40;60.10;;;;;;4976453;28;20042;-16
2022/05/18 07:33:08;;;;;;;1.40;0.60;;;22.40;60.00;;;;;;4971322;28;20099;-16
2022/05/18 07:35:34;;;;;;;1.17;0.93;;;22.40;60.10;;;;;;4972138;28;20138;-16
2022/05/18 07:37:59;;;;;;;1.77;0.40;;;22.40;60.00;;;;;;4976971;28;20122;-16
2022/05/18 07:40:25;;;;;;;0.73;0.40;;;22.30;60.10;;;;;;4976698;28;20042;-15
2022/05/18 07:42:54;;;;;;;0.40;0.40;;;22.40;60.10;;;;;;4974894;28;20500;-16
2022/05/18 07:45:21;;;;;;;0.43;0.38;;;22.40;60.10;;;;;;4977399;28;20047;-16
2022/05/18 07:47:47;;;;;;;0.30;0.30;;;22.40;60.20;;;;;;4976311;28;20196;-15
2022/05/18 07:50:12;;;;;;;0.73;0.30;;;22.40;60.20;;;;;;4970921;28;20066;-15
2022/05/18 07:52:38;;;;;;;1.02;0.60;;;22.40;60.30;;;;;;4957316;28;20094;-15
2022/05/18 07:55:04;;;;;;;0.73;0.50;;;22.40;60.30;;;;;;4975237;28;20051;-17
2022/05/18 07:57:30;;;;;;;0.50;0.40;;;22.40;60.20;;;;;;4975441;28;20051;-15
2022/05/18 07:59:59;;;;;;;0.40;0.40;;;22.50;60.10;;;;;;4976874;28;20058;-15
2022/05/18 08:02:26;;;;;;;0.55;0.25;;;22.50;60.10;;;;;;4976653;28;20050;-15
2022/05/18 08:04:51;;;;;;;1.23;0.52;;;22.40;60.20;;;;;;4976037;28;20050;-14
2022/05/18 08:07:17;;;;;;;0.43;0.40;;;22.40;60.20;;;;;;4975140;28;20053;-15
2022/05/18 08:15:12;;;;;;;;;;;22.40;60.10;;;;;;4989639;28;20092;-15
2022/05/18 08:17:44;;;;;;;0.50;0.50;;;22.40;60.10;;;;;;4976081;28;19914;-15
2022/05/18 08:20:13;;;;;;;0.63;0.50;;;22.40;60.10;;;;;;4974755;28;20503;-15
2022/05/18 08:22:39;;;;;;;1.60;0.28;;;22.40;60.10;;;;;;4974439;28;20050;-15
2022/05/18 08:25:05;;;;;;;0.28;0.20;;;22.40;60.20;;;;;;4975789;28;20530;-17
2022/05/18 08:27:31;;;;;;;0.57;0.40;;;22.50;60.20;;;;;;4975942;28;20423;-16
2022/05/18 08:30:04;;;;;;;0.57;0.43;;;22.50;60.20;;;;;;4974968;28;20576;-17
2022/05/18 08:32:30;;;;;;;0.65;0.30;;;22.50;60.30;;;;;;4974995;28;20043;-17
2022/05/18 08:34:55;;;;;;;1.38;0.60;;;22.50;60.20;;;;;;4975101;28;20583;-17
2022/05/18 08:37:24;;;;;;;0.85;0.43;;;22.50;60.10;;;;;;4974136;28;20125;-17
2022/05/18 08:39:50;;;;;;;0.40;0.40;;;22.60;60.00;;;;;;4973378;28;20407;-17
2022/05/18 08:42:17;;;;;;;0.85;0.40;;;22.50;60.00;;;;;;4975630;28;20051;-17
2022/05/18 08:44:43;;;;;;;0.50;0.38;;;22.60;60.10;;;;;;4974117;28;20074;-16
2022/05/18 08:47:43;;;;;;;1.15;0.30;;;22.50;60.10;;;;;;4976079;28;20065;-17
2022/05/18 08:50:14;;;;;;;0.43;0.30;;;22.50;60.10;;;;;;4974764;28;20171;-17
2022/05/18 08:53:24;;;;;;;0.40;0.20;;;22.60;60.00;;;;;;4975749;28;20133;-18
2022/05/18 08:56:02;;;;;;;0.30;0.25;;;22.60;60.00;;;;;;4974530;28;20050;-17
2022/05/18 08:58:42;;;;;;;0.30;0.30;;;22.60;60.00;;;;;;4961554;28;20050;-17
2022/05/18 09:01:35;;;;;;;1.42;0.43;;;22.60;60.00;;;;;;4972768;28;20105;-16
2022/05/18 09:04:22;;;;;;;0.20;0.20;;;22.60;60.00;;;;;;4969916;28;20105;-17
2022/05/18 09:06:58;;;;;;;1.10;0.25;;;22.70;59.90;;;;;;4973241;28;20057;-19
2022/05/18 09:12:19;;;;;;;0.32;0.30;;;22.70;59.80;;;;;;4961189;28;20135;-17
2022/05/18 09:14:45;;;;;;;0.20;0.20;;;22.80;59.80;;;;;;4975762;28;20070;-17
2022/05/18 09:17:31;;;;;;;0.40;0.40;;;22.80;59.80;;;;;;4974046;28;20069;-17
2022/05/18 09:20:15;;;;;;;0.30;0.30;;;22.80;59.90;;;;;;4970714;28;20062;-15
2022/05/18 09:23:08;;;;;;;0.28;0.28;;;22.80;59.70;;;;;;4970205;28;20063;-15
2022/05/18 09:25:42;;;;;;;0.60;0.30;;;22.80;59.60;;;;;;4974436;28;20038;-15
2022/05/18 09:28:18;;;;;;;0.70;0.40;;;22.80;59.80;;;;;;4973606;28;20069;-15
2022/05/18 09:30:59;;;;;;;0.45;0.30;;;22.80;59.80;;;;;;4972050;28;20046;-15
2022/05/18 09:33:24;;;;;;;0.20;0.17;;;22.80;59.90;;;;;;4975962;28;20045;-14
2022/05/18 09:36:18;;;;;;;0.73;0.40;;;22.80;59.80;;;;;;4975084;28;20043;-14
2022/05/18 09:38:50;;;;;;;0.40;0.40;;;22.80;59.80;;;;;;4966847;28;20062;-14
2022/05/18 09:41:17;;;;;;;0.60;0.30;;;22.80;59.80;;;;;;4972506;28;20045;-14
2022/05/18 09:43:55;;;;;;;0.30;0.30;;;22.80;59.80;;;;;;4965556;28;20046;-15
2022/05/18 09:46:23;;;;;;;0.43;0.43;;;22.80;59.80;;;;;;4965318;28;20089;-15
2022/05/18 09:49:18;;;;;;;0.63;0.28;;;22.80;59.80;;;;;;4971277;28;20051;-14
2022/05/18 09:51:44;;;;;;;0.80;0.32;;;22.80;59.80;;;;;;4952377;28;20066;-15
2022/05/18 09:54:10;;;;;;;0.38;0.38;;;22.80;59.80;;;;;;4974479;28;20134;-14
2022/05/18 09:56:46;;;;;;;0.38;0.30;;;22.90;59.80;;;;;;4974491;28;20162;-14
2022/05/18 09:59:15;;;;;;;0.68;0.40;;;22.90;59.70;;;;;;4976646;28;20096;-15
2022/05/18 10:07:29;;;;;;;0.60;0.28;;;22.90;59.80;;;;;;4969502;28;20146;-15
2022/05/18 10:10:10;;;;;;;0.20;0.15;;;22.90;59.80;;;;;;4964857;28;20051;-14
2022/05/18 10:12:43;;;;;;;0.80;0.30;;;22.80;59.80;;;;;;4974837;28;20047;-14
2022/05/18 10:15:42;;;;;;;0.20;0.20;;;22.90;59.80;;;;;;4973632;28;20575;-15
2022/05/18 10:18:12;;;;;;;0.47;0.28;;;22.80;59.80;;;;;;4979764;28;20055;-14
2022/05/18 10:20:38;;;;;;;0.20;0.20;;;22.90;59.80;;;;;;5002925;28;20047;-14
2022/05/18 10:23:04;;;;;;;0.30;0.30;;;22.90;59.70;;;;;;4973675;28;20109;-14
2022/05/18 10:25:58;;;;;;;0.50;0.32;;;22.90;59.70;;;;;;4973344;28;20042;-14
2022/05/18 10:28:28;;;;;;;0.20;0.13;;;22.90;59.60;;;;;;4972891;28;20051;-15
2022/05/18 10:30:57;;;;;;;0.30;0.28;;;22.90;59.60;;;;;;4971851;28;20089;-16
2022/05/18 10:33:31;;;;;;;1.58;0.45;;;22.90;59.80;;;;;;4974643;28;20137;-16
2022/05/18 10:35:56;;;;;;;0.60;0.40;;;22.90;59.70;;;;;;4982369;28;20046;-16
2022/05/18 10:38:29;;;;;;;0.50;0.38;;;22.90;59.60;;;;;;4975507;28;20034;-16
2022/05/18 10:41:04;;;;;;;0.57;0.30;;;22.90;59.60;;;;;;4971185;28;20063;-16
2022/05/18 10:43:40;;;;;;;0.40;0.30;;;22.90;59.60;;;;;;4974406;28;20045;-16
2022/05/18 10:46:41;;;;;;;0.30;0.30;;;22.90;59.40;;;;;;4970475;28;20158;-16
2022/05/18 10:49:20;;;;;;;0.30;0.30;;;23.00;59.50;;;;;;4971755;28;20051;-16
2022/05/18 10:51:46;;;;;;;0.28;0.20;;;23.00;59.30;;;;;;4972946;28;20058;-16
2022/05/18 10:54:14;;;;;;;0.40;0.30;;;23.00;59.10;;;;;;4976325;28;20042;-16
2022/05/18 10:56:40;;;;;;;0.20;0.20;;;23.00;59.20;;;;;;4976858;28;20135;-17
2022/05/18 10:59:31;;;;;;;0.40;0.40;;;23.00;59.20;;;;;;4988465;28;20109;-15
2022/05/18 11:02:10;;;;;;;0.60;0.60;;;23.00;59.40;;;;;;4970455;28;20058;-15
2022/05/18 11:05:23;;;;;;;1.77;1.33;;;23.00;59.60;;;;;;4976723;28;20598;-16
2022/05/18 11:07:48;;;;;;;1.48;1.38;;;23.00;59.80;;;;;;4935798;29;20039;-16
2022/05/18 11:10:14;;;;;;;1.83;1.52;;;23.00;60.10;;;;;;4969046;28;20054;-15
2022/05/18 11:13:01;;;;;;;1.50;1.40;;;23.00;59.80;;;;;;4972859;28;20054;-15
2022/05/18 11:15:37;;;;;;;1.90;1.50;;;23.00;60.40;;;;;;4972833;28;20042;-16
2022/05/18 11:18:20;;;;;;;2.30;1.58;;;23.00;60.40;;;;;;4953697;28;20113;-15
2022/05/18 11:20:58;;;;;;;1.40;1.30;;;23.10;60.90;;;;;;4968926;28;20511;-16
2022/05/18 11:24:08;;;;;;;1.50;1.40;;;23.10;60.50;;;;;;4969436;28;20053;-16
2022/05/18 11:26:37;;;;;;;1.48;1.38;;;23.10;60.10;;;;;;4968638;28;20082;-16
2022/05/18 11:29:20;;;;;;;1.95;1.83;;;23.10;60.50;;;;;;4966808;28;20129;-16
2022/05/18 11:32:03;;;;;;;1.92;1.65;;;23.10;60.40;;;;;;4959704;28;20769;-15
2022/05/18 11:34:51;;;;;;;2.67;1.77;;;23.20;60.20;;;;;;4946302;28;20137;-15
2022/05/18 11:37:37;;;;;;;2.10;1.70;;;23.20;60.60;;;;;;4960371;28;20910;-16
2022/05/18 11:40:41;;;;;;;3.55;1.83;;;23.20;61.10;;;;;;4960075;28;20075;-16
2022/05/18 11:43:35;;;;;;;1.45;1.35;;;23.20;60.70;;;;;;4959957;28;20054;-17
2022/05/18 11:46:07;;;;;;;4.28;1.50;;;23.20;60.20;;;;;;4957409;28;20050;-16
2022/05/18 11:48:58;;;;;;;1.42;1.33;;;23.20;60.90;;;;;;4959675;28;20051;-17
2022/05/18 11:51:51;;;;;;;1.42;1.30;;;23.20;60.40;;;;;;4958079;28;20135;-16
2022/05/18 11:54:35;;;;;;;1.45;1.35;;;23.30;60.70;;;;;;4960589;28;20504;-16
2022/05/18 11:57:19;;;;;;;1.45;1.35;;;23.30;60.10;;;;;;4972558;28;20109;-16
2022/05/18 12:00:07;;;;;;;1.40;1.30;;;23.30;60.80;;;;;;4945013;28;20587;-16
2022/05/18 12:03:30;;;;;;;1.70;1.60;;;23.30;60.10;;;;;;4963396;28;20058;-16
2022/05/18 12:06:14;;;;;;;1.25;1.15;;;23.30;60.50;;;;;;4918763;29;20052;-16
2022/05/18 12:09:03;;;;;;;2.85;1.20;;;23.30;60.50;;;;;;4921293;29;20055;-16
2022/05/18 12:11:47;;;;;;;1.42;1.30;;;23.40;60.30;;;;;;4951905;28;20071;-16
2022/05/18 12:14:31;;;;;;;;;;;23.40;59.90;;;;;;4963028;28;20105;-16
2022/05/18 12:16:59;;;;;;;1.70;1.20;;;23.40;60.30;;;;;;4960942;28;19922;-16
2022/05/18 12:19:32;;;;;;;1.35;1.25;;;23.40;59.90;;;;;;4962387;28;20061;-16
2022/05/18 12:21:59;;;;;;;2.00;1.57;;;23.40;60.10;;;;;;4941796;28;20051;-16
2022/05/18 12:24:25;;;;;;;1.17;1.05;;;23.40;59.90;;;;;;4945576;28;20054;-17
2022/05/18 12:26:51;;;;;;;1.92;1.63;;;23.40;60.00;;;;;;4960916;28;20527;-15
2022/05/18 12:29:21;;;;;;;1.83;1.30;;;23.40;60.20;;;;;;4943932;28;20666;-17
2022/05/18 12:31:47;;;;;;;1.63;0.98;;;23.60;60.20;;;;;;4960730;28;20768;-17
2022/05/18 12:34:13;;;;;;;1.80;1.30;;;23.60;59.90;;;;;;4944715;28;20185;-17
2022/05/18 12:36:51;;;;;;;1.30;1.25;;;23.50;60.00;;;;;;4961356;28;20057;-17
2022/05/18 12:39:25;;;;;;;1.48;1.38;;;23.60;59.90;;;;;;4961093;28;20051;-18
2022/05/18 12:41:54;;;;;;;1.45;1.35;;;23.60;59.90;;;;;;4961916;28;20050;-17
2022/05/18 12:44:24;;;;;;;1.25;1.15;;;23.70;59.80;;;;;;4961750;28;20072;-16
2022/05/18 12:46:55;;;;;;;1.58;1.48;;;23.70;59.80;;;;;;4942784;28;20055;-16
2022/05/18 12:49:41;;;;;;;1.05;0.90;;;23.60;59.70;;;;;;4960251;28;20081;-17
2022/05/18 12:52:17;;;;;;;1.40;1.30;;;23.60;59.80;;;;;;4959342;28;20069;-19
2022/05/18 12:54:43;;;;;;;1.13;1.13;;;23.50;59.90;;;;;;4942707;28;20050;-18
2022/05/18 12:57:14;;;;;;;1.35;1.25;;;23.50;60.10;;;;;;4961071;28;20154;-17
2022/05/18 13:00:12;;;;;;;2.60;1.08;;;23.60;59.80;;;;;;4962214;28;20617;-16
2022/05/18 13:02:46;;;;;;;1.08;1.02;;;23.60;59.90;;;;;;4961541;28;20514;-15
2022/05/18 13:05:24;;;;;;;1.05;1.05;;;23.60;59.90;;;;;;4959637;28;20874;-16
2022/05/18 13:07:50;;;;;;;1.02;1.02;;;23.60;59.90;;;;;;4960601;28;20086;-20
2022/05/18 13:10:16;;;;;;;1.20;1.10;;;23.60;59.80;;;;;;4959475;28;20074;-16
2022/05/18 13:12:58;;;;;;;1.27;1.17;;;23.60;59.80;;;;;;4959479;28;20054;-16
2022/05/18 13:15:39;;;;;;;2.00;1.08;;;23.60;59.80;;;;;;4958293;28;20051;-15
2022/05/18 13:18:18;;;;;;;1.17;1.08;;;23.60;59.80;;;;;;4960901;28;20055;-17
2022/05/18 13:20:57;;;;;;;1.10;1.00;;;23.80;59.50;;;;;;4960117;28;20054;-16
2022/05/18 13:23:39;;;;;;;0.80;0.80;;;23.80;59.50;;;;;;4974887;28;20050;-16
2022/05/18 13:26:21;;;;;;;0.93;0.93;;;23.80;59.40;;;;;;4958856;28;20066;-17